Time;durP1;ratioP1;P1;durP2;ratioP2;P2;SDS_P1;SDS_P2;PMS_P1;PMS_P2;Temp;Humidity;BMP_temperature;BMP_pressure;BME280_temperature;BME280_humidity;BME280_pressure;Samples;Min_cycle;Max_cycle;Signal;HPM_P1;HPM_P2
2022/11/26 00:00:18;;;;;;;20.20;8.27;;;;;;;8.03;100.00;101670.97;5076506;28;20487;-71
2022/11/26 00:02:45;;;;;;;20.20;8.10;;;;;;;8.07;100.00;101676.69;5092247;28;20418;-71
2022/11/26 00:05:13;;;;;;;18.13;8.77;;;;;;;8.12;100.00;101674.03;5093094;28;20535;-71
2022/11/26 00:07:41;;;;;;;16.43;7.53;;;;;;;8.14;100.00;101674.56;5092013;28;20463;-71
2022/11/26 00:10:17;;;;;;;23.23;7.97;;;;;;;8.17;100.00;101681.34;5093223;28;20630;-68
2022/11/26 00:12:44;;;;;;;16.13;6.80;;;;;;;8.19;100.00;101671.94;5091996;28;20468;-70
2022/11/26 00:15:18;;;;;;;17.40;7.87;;;;;;;8.21;100.00;101680.56;5093987;28;20964;-69
2022/11/26 00:17:44;;;;;;;18.50;8.30;;;;;;;8.18;100.00;101678.38;5095693;28;21025;-71
2022/11/26 00:20:11;;;;;;;16.23;7.53;;;;;;;8.08;100.00;101681.81;5097163;28;20441;-70
2022/11/26 00:22:41;;;;;;;16.67;8.43;;;;;;;8.11;100.00;101688.59;5096054;28;20551;-70
2022/11/26 00:25:18;;;;;;;17.37;8.60;;;;;;;8.08;100.00;101681.00;5097065;28;20501;-70
2022/11/26 00:27:44;;;;;;;17.70;8.60;;;;;;;8.09;100.00;101688.81;5095715;28;20490;-71
2022/11/26 00:30:18;;;;;;;19.70;7.10;;;;;;;8.15;100.00;101686.19;5096744;28;20961;-70
2022/11/26 00:32:44;;;;;;;23.40;8.87;;;;;;;8.16;100.00;101695.91;5095550;28;20476;-70
2022/11/26 00:35:11;;;;;;;24.10;7.10;;;;;;;8.17;100.00;101690.25;5096498;28;20473;-70
2022/11/26 00:37:43;;;;;;;20.97;8.40;;;;;;;8.17;100.00;101686.75;5095761;28;20491;-69
2022/11/26 00:40:24;;;;;;;16.57;7.43;;;;;;;8.18;100.00;101691.88;5096223;28;20516;-68
2022/11/26 00:42:51;;;;;;;19.30;7.27;;;;;;;8.17;100.00;101698.34;5095460;28;20463;-70
2022/11/26 00:45:22;;;;;;;16.80;8.00;;;;;;;8.19;100.00;101701.63;5096414;28;20479;-70
2022/11/26 00:47:48;;;;;;;16.37;8.00;;;;;;;8.18;100.00;101701.84;5094946;28;20456;-70
2022/11/26 00:50:18;;;;;;;19.07;8.20;;;;;;;8.14;100.00;101704.25;5096244;28;20484;-71
2022/11/26 00:52:47;;;;;;;35.33;9.07;;;;;;;8.16;100.00;101707.50;5095417;28;20448;-71
2022/11/26 00:55:26;;;;;;;20.53;8.27;;;;;;;8.17;100.00;101708.31;5096243;28;20440;-71
2022/11/26 00:57:52;;;;;;;20.97;6.90;;;;;;;8.13;100.00;101710.72;5094982;28;20858;-71
2022/11/26 01:00:22;;;;;;;22.13;7.33;;;;;;;8.14;100.00;101711.53;5095951;28;20464;-71
2022/11/26 01:02:49;;;;;;;20.37;8.53;;;;;;;8.17;100.00;101717.22;5080783;28;20464;-72
2022/11/26 01:05:16;;;;;;;18.23;8.47;;;;;;;8.19;100.00;101720.50;5091270;28;20459;-71
2022/11/26 01:07:43;;;;;;;20.40;8.03;;;;;;;8.16;100.00;101728.28;5094809;28;20995;-72
2022/11/26 01:10:20;;;;;;;19.20;7.50;;;;;;;8.15;100.00;101724.78;5095937;28;20480;-71
2022/11/26 01:12:48;;;;;;;25.43;8.67;;;;;;;8.16;100.00;101729.09;5094947;28;20456;-71
2022/11/26 01:15:15;;;;;;;23.37;8.17;;;;;;;8.14;100.00;101728.53;5096212;28;20432;-72
2022/11/26 01:17:43;;;;;;;16.83;7.13;;;;;;;8.17;100.00;101730.72;5094791;28;20459;-71
2022/11/26 01:20:23;;;;;;;26.17;7.73;;;;;;;8.15;100.00;101738.28;5095643;28;20853;-71
2022/11/26 01:22:50;;;;;;;20.53;8.00;;;;;;;8.18;100.00;101743.13;5094851;28;20543;-71
2022/11/26 01:25:17;;;;;;;23.77;7.43;;;;;;;8.15;100.00;101743.69;5095906;28;20472;-70
2022/11/26 01:27:43;;;;;;;19.70;8.00;;;;;;;8.18;100.00;101743.13;5093868;28;20488;-71
2022/11/26 01:30:16;;;;;;;20.97;8.17;;;;;;;8.13;100.00;101743.09;5095710;28;20480;-71
2022/11/26 01:32:44;;;;;;;20.17;7.43;;;;;;;8.15;100.00;101748.25;5094296;28;20448;-71
2022/11/26 01:35:11;;;;;;;17.03;7.87;;;;;;;8.18;100.00;101748.53;5095477;28;20440;-71
2022/11/26 01:37:38;;;;;;;22.20;7.70;;;;;;;8.15;100.00;101753.66;5094029;28;20957;-71
2022/11/26 01:40:35;;;;;;;20.70;7.77;;;;;;;8.17;100.00;101752.31;5095503;28;20468;-70
2022/11/26 01:43:06;;;;;;;19.30;7.20;;;;;;;8.19;100.00;101758.28;5094679;28;20543;-72
2022/11/26 01:45:32;;;;;;;23.00;8.37;;;;;;;8.20;100.00;101749.13;5095383;28;20421;-71
2022/11/26 01:48:00;;;;;;;20.43;9.13;;;;;;;8.20;100.00;101745.59;5094006;28;20476;-71
2022/11/26 01:50:55;;;;;;;20.20;7.30;;;;;;;8.18;100.00;101745.84;5095031;28;20484;-70
2022/11/26 01:53:29;;;;;;;20.67;9.07;;;;;;;8.19;100.00;101750.19;5094035;28;20469;-70
2022/11/26 01:55:59;;;;;;;19.63;7.90;;;;;;;8.20;100.00;101753.69;5094712;28;20460;-71
2022/11/26 01:58:31;;;;;;;16.53;7.70;;;;;;;8.21;100.00;101755.31;5094370;28;20476;-71
2022/11/26 02:00:59;;;;;;;20.90;7.63;;;;;;;8.20;100.00;101761.81;5095145;28;20787;-69
2022/11/26 02:03:30;;;;;;;20.37;8.10;;;;;;;8.25;100.00;101769.94;5093865;28;20540;-72
2022/11/26 02:05:59;;;;;;;17.27;8.00;;;;;;;8.27;100.00;101767.78;5094702;28;20460;-72
2022/11/26 02:08:30;;;;;;;22.10;9.57;;;;;;;8.24;100.00;101769.13;5093494;28;21028;-72
2022/11/26 02:10:56;;;;;;;35.03;10.60;;;;;;;8.24;100.00;101774.53;5094630;28;21015;-71
2022/11/26 02:13:23;;;;;;;26.63;11.23;;;;;;;8.28;100.00;101780.22;5094079;28;20488;-71
2022/11/26 02:16:00;;;;;;;22.33;9.00;;;;;;;8.30;100.00;101784.28;5094712;28;20446;-71
2022/11/26 02:18:35;;;;;;;35.93;9.23;;;;;;;8.26;100.00;101787.75;5093534;28;20483;-71
2022/11/26 02:21:05;;;;;;;20.10;7.10;;;;;;;8.31;100.00;101795.91;5093725;28;20531;-71
2022/11/26 02:23:59;;;;;;;22.70;8.73;;;;;;;8.29;100.00;101796.16;5094753;28;20459;-71
2022/11/26 02:26:59;;;;;;;21.67;8.10;;;;;;;8.27;100.00;101794.78;5094191;28;20820;-72
2022/11/26 02:29:31;;;;;;;24.37;9.67;;;;;;;8.22;100.00;101803.63;5093316;28;20476;-72
2022/11/26 02:32:05;;;;;;;21.00;9.53;;;;;;;8.24;100.00;101798.00;5094606;28;20475;-72
2022/11/26 02:34:39;;;;;;;25.13;9.60;;;;;;;8.21;100.00;101795.81;5093301;28;20919;-71
2022/11/26 02:37:10;;;;;;;23.50;10.30;;;;;;;8.21;100.00;101790.41;5093089;28;20456;-70
2022/11/26 02:39:36;;;;;;;26.23;9.80;;;;;;;8.25;100.00;101803.13;5092692;28;20499;-72
2022/11/26 02:42:03;;;;;;;24.70;9.77;;;;;;;8.23;100.00;101805.25;5092394;28;20459;-72
2022/11/26 02:44:36;;;;;;;30.27;10.47;;;;;;;8.28;100.00;101802.63;5094372;28;20469;-72
2022/11/26 02:47:09;;;;;;;44.83;12.20;;;;;;;8.35;100.00;101800.53;5092862;28;20459;-71
2022/11/26 02:49:39;;;;;;;23.70;9.70;;;;;;;8.32;100.00;101817.25;5093049;28;20480;-72
2022/11/26 02:52:07;;;;;;;34.97;10.00;;;;;;;8.31;100.00;101812.09;5093214;28;20568;-71
2022/11/26 02:54:36;;;;;;;20.40;10.07;;;;;;;8.31;100.00;101809.38;5093932;28;20476;-72
2022/11/26 02:57:07;;;;;;;26.10;11.10;;;;;;;8.32;100.00;101814.56;5093355;28;20527;-72
2022/11/26 02:59:34;;;;;;;24.63;9.90;;;;;;;8.31;100.00;101812.91;5093098;28;20468;-72
2022/11/26 03:02:07;;;;;;;28.97;11.47;;;;;;;8.32;100.00;101816.41;5092750;28;20481;-71
2022/11/26 03:04:37;;;;;;;33.07;10.87;;;;;;;8.32;100.00;101819.13;5094107;28;20503;-72
2022/11/26 03:07:06;;;;;;;24.20;10.43;;;;;;;8.30;100.00;101813.97;5091247;28;20495;-72
2022/11/26 03:09:40;;;;;;;27.60;10.50;;;;;;;8.32;100.00;101827.22;5092926;28;20575;-73
2022/11/26 03:12:07;;;;;;;37.13;11.87;;;;;;;8.33;100.00;101813.47;5073700;28;20469;-72
2022/11/26 03:14:33;;;;;;;26.73;10.23;;;;;;;8.37;100.00;101821.91;5076796;28;20543;-73
2022/11/26 03:17:00;;;;;;;22.67;10.57;;;;;;;8.40;100.00;101820.56;5093079;28;20468;-73
2022/11/26 03:19:28;;;;;;;24.80;10.73;;;;;;;8.39;100.00;101808.97;5093680;28;20559;-71
2022/11/26 03:21:54;;;;;;;23.13;11.10;;;;;;;8.40;100.00;101825.97;5091571;28;20543;-72
2022/11/26 03:24:21;;;;;;;25.13;11.43;;;;;;;8.35;100.00;101830.22;5093890;28;20468;-71
2022/11/26 03:26:48;;;;;;;31.03;10.90;;;;;;;8.39;100.00;101833.25;5092971;28;20465;-71
2022/11/26 03:29:14;;;;;;;20.47;9.80;;;;;;;8.40;100.00;101828.69;5093784;28;20491;-71
2022/11/26 03:31:41;;;;;;;24.63;11.00;;;;;;;8.40;100.00;101836.78;5092322;28;20575;-71
2022/11/26 03:34:07;;;;;;;29.40;10.37;;;;;;;8.41;100.00;101843.78;5093748;28;20471;-71
2022/11/26 03:36:35;;;;;;;22.93;10.00;;;;;;;8.39;100.00;101845.94;5092709;28;20457;-72
2022/11/26 03:39:02;;;;;;;37.70;13.60;;;;;;;8.38;100.00;101850.53;5093320;28;20478;-71
2022/11/26 03:41:28;;;;;;;36.37;12.63;;;;;;;8.41;100.00;101849.19;5092180;28;20540;-71
2022/11/26 03:43:55;;;;;;;31.10;11.37;;;;;;;8.41;100.00;101854.59;5093338;28;20452;-71
2022/11/26 03:46:21;;;;;;;27.53;10.07;;;;;;;8.39;100.00;101852.16;5092767;28;20460;-71
2022/11/26 03:48:48;;;;;;;22.17;10.47;;;;;;;8.42;100.00;101851.66;5092925;28;20461;-71
2022/11/26 03:51:15;;;;;;;33.80;10.90;;;;;;;8.42;100.00;101850.84;5091746;28;20491;-71
2022/11/26 03:53:42;;;;;;;27.27;10.90;;;;;;;8.42;100.00;101850.84;5093278;28;20440;-71
2022/11/26 03:56:09;;;;;;;30.03;11.40;;;;;;;8.49;100.00;101859.53;5092050;28;21040;-70
2022/11/26 03:58:36;;;;;;;30.20;11.57;;;;;;;8.45;100.00;101861.94;5093173;28;20456;-72
2022/11/26 04:01:07;;;;;;;25.50;10.57;;;;;;;8.38;100.00;101865.94;5091954;28;20527;-72
2022/11/26 04:03:34;;;;;;;24.87;10.60;;;;;;;8.43;100.00;101868.66;5092621;28;20475;-71
2022/11/26 04:06:01;;;;;;;24.73;10.93;;;;;;;8.46;100.00;101877.09;5092343;28;20467;-72
2022/11/26 04:08:27;;;;;;;38.83;11.27;;;;;;;8.48;100.00;101879.53;5093236;28;20465;-72
2022/11/26 04:10:55;;;;;;;28.80;9.80;;;;;;;8.53;100.00;101879.56;5091904;28;20483;-72
2022/11/26 04:13:22;;;;;;;32.83;11.80;;;;;;;8.49;100.00;101881.13;5093003;28;20989;-72
2022/11/26 04:15:48;;;;;;;37.57;11.87;;;;;;;8.51;100.00;101879.03;5091809;28;20462;-73
2022/11/26 04:18:15;;;;;;;25.50;11.70;;;;;;;8.52;100.00;101888.75;5092754;28;20474;-72
2022/11/26 04:20:42;;;;;;;44.30;12.37;;;;;;;8.55;100.00;101893.63;5091107;28;20463;-72
2022/11/26 04:23:09;;;;;;;34.57;11.50;;;;;;;8.56;100.00;101887.16;5092877;28;21011;-72
2022/11/26 04:25:35;;;;;;;25.17;10.27;;;;;;;8.50;100.00;101893.56;5092239;28;20462;-72
2022/11/26 04:28:04;;;;;;;33.50;11.57;;;;;;;8.49;100.00;101900.03;5093046;28;20463;-72
2022/11/26 04:30:30;;;;;;;24.30;10.90;;;;;;;8.41;100.00;101897.78;5092176;28;20456;-72
2022/11/26 04:32:57;;;;;;;28.17;9.73;;;;;;;8.44;100.00;101902.69;5093007;28;20527;-65
2022/11/26 04:35:23;;;;;;;32.03;9.83;;;;;;;8.50;100.00;101907.06;5091709;28;20547;-65
2022/11/26 04:37:50;;;;;;;28.30;11.30;;;;;;;8.55;100.00;101901.75;5092789;28;20527;-72
2022/11/26 04:40:17;;;;;;;24.60;10.33;;;;;;;8.50;100.00;101913.31;5091647;28;20509;-72
2022/11/26 04:42:43;;;;;;;21.97;9.90;;;;;;;8.55;100.00;101920.66;5093051;28;20436;-71
2022/11/26 04:45:11;;;;;;;35.63;10.37;;;;;;;8.54;100.00;101919.00;5092274;28;20527;-72
2022/11/26 04:47:38;;;;;;;28.83;11.47;;;;;;;8.57;100.00;101926.59;5092520;28;20472;-72
2022/11/26 04:50:06;;;;;;;31.87;9.80;;;;;;;8.57;100.00;101929.28;5091835;28;22436;-72
2022/11/26 04:52:34;;;;;;;23.27;10.80;;;;;;;8.54;100.00;101930.63;5092611;28;21052;-72
2022/11/26 04:55:01;;;;;;;27.70;11.90;;;;;;;8.56;100.00;101930.38;5091711;28;20827;-73
2022/11/26 04:57:27;;;;;;;27.93;10.20;;;;;;;8.53;100.00;101941.66;5092842;28;20442;-71
2022/11/26 04:59:54;;;;;;;19.70;9.37;;;;;;;8.53;100.00;101938.97;5091417;28;20531;-72
2022/11/26 05:02:22;;;;;;;20.73;9.87;;;;;;;8.52;100.00;101938.16;5094662;28;20880;-71
2022/11/26 05:04:48;;;;;;;26.53;9.60;;;;;;;8.56;100.00;101947.38;5095460;28;20806;-74
2022/11/26 05:07:15;;;;;;;24.07;9.10;;;;;;;8.55;100.00;101950.34;5096437;28;20440;-72
2022/11/26 05:09:42;;;;;;;22.83;8.90;;;;;;;8.56;100.00;101958.19;5095892;28;20492;-73
2022/11/26 05:12:10;;;;;;;18.67;7.93;;;;;;;8.55;100.00;101951.16;5095524;28;20488;-72
2022/11/26 05:14:36;;;;;;;30.47;9.53;;;;;;;8.57;100.00;101967.09;5094891;28;20964;-72
2022/11/26 05:17:03;;;;;;;26.77;9.70;;;;;;;8.53;100.00;101966.78;5095961;28;20442;-72
2022/11/26 05:19:31;;;;;;;20.27;8.37;;;;;;;8.54;100.00;101973.84;5094624;28;20904;-70
2022/11/26 05:21:57;;;;;;;22.27;8.83;;;;;;;8.52;100.00;101969.75;5094839;28;20452;-71
2022/11/26 05:24:24;;;;;;;18.63;7.43;;;;;;;8.46;100.00;101971.59;5094829;28;20499;-72
2022/11/26 05:26:50;;;;;;;25.90;9.60;;;;;;;8.49;100.00;101981.06;5095808;28;21006;-72
2022/11/26 05:29:17;;;;;;;18.30;8.80;;;;;;;8.49;100.00;101987.25;5094695;28;20564;-72
2022/11/26 05:31:44;;;;;;;22.60;8.63;;;;;;;8.49;100.00;101992.66;5095837;28;20491;-72
2022/11/26 05:34:10;;;;;;;25.30;8.67;;;;;;;8.45;100.00;101988.03;5094060;28;20850;-72
2022/11/26 05:36:38;;;;;;;37.17;8.73;;;;;;;8.47;100.00;101992.13;5095818;28;20441;-71
2022/11/26 05:39:05;;;;;;;19.97;8.97;;;;;;;8.47;100.00;101991.31;5104464;22;20494;-67
2022/11/26 05:41:31;;;;;;;17.50;7.10;;;;;;;8.48;100.00;101996.44;5054912;28;20973;-67
2022/11/26 05:43:58;;;;;;;22.80;7.40;;;;;;;8.50;100.00;101999.72;5052911;28;20461;-67
2022/11/26 05:46:25;;;;;;;17.30;7.80;;;;;;;8.48;100.00;102001.03;5052628;28;20493;-67
2022/11/26 05:48:52;;;;;;;23.03;9.37;;;;;;;8.52;100.00;101999.47;5054819;28;20556;-68
2022/11/26 05:51:18;;;;;;;19.63;8.17;;;;;;;8.54;100.00;102002.72;5053953;28;20572;-69
2022/11/26 05:53:46;;;;;;;19.00;8.23;;;;;;;8.43;100.00;102003.66;5053430;28;20498;-69
2022/11/26 05:56:13;;;;;;;21.57;8.47;;;;;;;8.45;100.00;102004.22;5054861;28;20430;-69
2022/11/26 05:58:42;;;;;;;17.73;8.00;;;;;;;8.43;100.00;102007.19;5054843;28;20498;-70
2022/11/26 06:01:09;;;;;;;19.93;8.07;;;;;;;8.45;100.00;102013.13;5051703;28;20466;-70
2022/11/26 06:03:36;;;;;;;15.40;7.10;;;;;;;8.46;100.00;102019.38;5051056;28;20501;-70
2022/11/26 06:06:04;;;;;;;19.47;8.30;;;;;;;8.44;100.00;102021.50;5053523;28;20459;-70
2022/11/26 06:08:30;;;;;;;23.73;7.50;;;;;;;8.46;100.00;102020.19;5053533;28;20979;-71
2022/11/26 06:10:58;;;;;;;26.40;9.33;;;;;;;8.47;100.00;102016.41;5034681;28;20506;-70
2022/11/26 06:13:25;;;;;;;27.57;8.13;;;;;;;8.46;100.00;102025.59;5034229;28;20482;-68
2022/11/26 06:15:52;;;;;;;22.70;8.27;;;;;;;8.45;100.00;102026.63;5053329;28;20449;-69
2022/11/26 06:18:18;;;;;;;22.10;9.37;;;;;;;8.50;100.00;102025.88;5053359;28;20450;-67
2022/11/26 06:20:45;;;;;;;20.23;8.50;;;;;;;8.47;100.00;102034.50;5053730;28;20494;-70
2022/11/26 06:23:12;;;;;;;21.57;8.23;;;;;;;8.42;100.00;102039.84;5054801;28;20446;-69
2022/11/26 06:25:40;;;;;;;32.23;8.77;;;;;;;8.44;100.00;102048.50;5053228;28;20462;-70
2022/11/26 06:28:08;;;;;;;20.27;7.70;;;;;;;8.46;100.00;102041.78;5053567;28;20453;-70
2022/11/26 06:30:34;;;;;;;18.93;8.37;;;;;;;8.49;100.00;102057.47;5053117;28;20501;-71
2022/11/26 06:33:01;;;;;;;21.10;6.43;;;;;;;8.47;100.00;102056.09;5054057;28;20489;-70
2022/11/26 06:35:28;;;;;;;34.50;7.83;;;;;;;8.50;100.00;102058.28;5052316;28;20488;-70
2022/11/26 06:37:54;;;;;;;13.70;5.50;;;;;;;8.51;100.00;102058.06;5052252;28;20545;-71
2022/11/26 06:40:21;;;;;;;14.63;6.57;;;;;;;8.49;100.00;102070.16;5052705;28;21084;-70
2022/11/26 06:42:49;;;;;;;19.57;7.57;;;;;;;8.49;100.00;102070.16;5053173;28;20454;-70
2022/11/26 06:45:17;;;;;;;16.40;6.33;;;;;;;8.43;100.00;102079.28;5054163;28;20482;-69
2022/11/26 06:47:45;;;;;;;25.33;7.03;;;;;;;8.44;100.00;102086.31;5053099;28;20465;-68
2022/11/26 06:50:12;;;;;;;16.37;6.33;;;;;;;8.47;100.00;102083.09;5053691;28;20986;-69
2022/11/26 06:52:39;;;;;;;15.17;7.10;;;;;;;8.47;100.00;102097.44;5050872;28;20485;-69
2022/11/26 06:55:06;;;;;;;19.63;6.00;;;;;;;8.49;100.00;102097.16;5053661;28;20795;-68
2022/11/26 06:57:33;;;;;;;28.43;7.87;;;;;;;8.49;100.00;102105.25;5052530;28;20501;-68
2022/11/26 06:59:59;;;;;;;18.97;7.17;;;;;;;8.47;100.00;102107.41;5053813;28;20509;-68
2022/11/26 07:02:27;;;;;;;22.50;6.20;;;;;;;8.43;100.00;102100.88;5052673;28;20458;-67
2022/11/26 07:04:54;;;;;;;20.57;7.70;;;;;;;8.42;100.00;102112.75;5053814;28;20452;-67
2022/11/26 07:07:20;;;;;;;22.73;8.17;;;;;;;8.42;100.00;102115.44;5052700;28;20458;-67
2022/11/26 07:09:47;;;;;;;14.63;6.53;;;;;;;8.42;100.00;102116.25;5053446;28;20472;-67
2022/11/26 07:12:16;;;;;;;14.13;5.27;;;;;;;8.39;100.00;102122.16;5052594;28;20517;-67
2022/11/26 07:14:43;;;;;;;17.50;7.47;;;;;;;8.40;100.00;102126.47;5053590;28;20445;-67
2022/11/26 07:17:09;;;;;;;17.20;6.30;;;;;;;8.42;100.00;102115.44;5052623;28;20529;-67
2022/11/26 07:19:37;;;;;;;20.60;6.90;;;;;;;8.41;100.00;102132.69;5053055;28;20983;-66
2022/11/26 07:22:04;;;;;;;13.20;5.17;;;;;;;8.45;100.00;102125.72;5052493;28;20480;-71
2022/11/26 07:24:30;;;;;;;26.53;7.00;;;;;;;8.48;100.00;102126.06;5052981;28;20446;-69
2022/11/26 07:26:57;;;;;;;15.73;6.13;;;;;;;8.47;100.00;102129.00;5052188;28;20470;-69
2022/11/26 07:29:24;;;;;;;18.13;6.50;;;;;;;8.51;100.00;102130.97;5051875;28;20478;-68
2022/11/26 07:31:50;;;;;;;16.57;7.07;;;;;;;8.48;100.00;102130.63;5052336;28;20569;-68
2022/11/26 07:34:17;;;;;;;22.87;6.30;;;;;;;8.52;100.00;102129.91;5053408;28;20450;-68
2022/11/26 07:36:45;;;;;;;10.70;4.17;;;;;;;8.51;100.00;102136.38;5052435;28;20464;-67
2022/11/26 07:39:11;;;;;;;20.33;7.10;;;;;;;8.54;100.00;102135.88;5052885;28;20553;-68
2022/11/26 07:41:39;;;;;;;21.40;7.10;;;;;;;8.59;100.00;102143.22;5051945;28;20998;-68
2022/11/26 07:44:05;;;;;;;13.17;5.53;;;;;;;8.56;100.00;102144.53;5053161;28;20438;-69
2022/11/26 07:46:32;;;;;;;17.63;6.47;;;;;;;8.57;100.00;102148.06;5052205;28;20458;-69
2022/11/26 07:48:58;;;;;;;17.27;7.10;;;;;;;8.49;100.00;102152.00;5052042;28;20482;-68
2022/11/26 07:51:27;;;;;;;20.10;6.40;;;;;;;8.51;100.00;102151.75;5051451;28;20557;-68
2022/11/26 07:53:56;;;;;;;14.73;5.60;;;;;;;8.52;100.00;102156.09;5051009;28;20494;-68
2022/11/26 07:56:23;;;;;;;16.93;8.33;;;;;;;8.55;100.00;102151.00;5049738;28;20903;-70
2022/11/26 07:58:49;;;;;;;13.33;5.63;;;;;;;8.57;100.00;102154.28;5048855;28;20857;-69
2022/11/26 08:01:19;;;;;;;10.83;4.70;;;;;;;8.51;100.00;102157.97;5051903;28;20460;-70
2022/11/26 08:03:48;;;;;;;13.50;5.03;;;;;;;8.55;100.00;102159.13;5051011;28;20501;-70
2022/11/26 08:06:17;;;;;;;21.77;5.73;;;;;;;8.58;100.00;102164.00;5050738;28;20464;-70
2022/11/26 08:08:43;;;;;;;18.43;7.03;;;;;;;8.61;100.00;102168.09;5043347;28;20470;-68
2022/11/26 08:11:15;;;;;;;13.00;5.13;;;;;;;8.62;100.00;102175.13;5051853;28;20466;-69
2022/11/26 08:13:42;;;;;;;24.80;5.87;;;;;;;8.61;100.00;102178.91;5032809;28;20463;-69
2022/11/26 08:16:10;;;;;;;12.93;5.60;;;;;;;8.62;100.00;102182.41;5042775;28;20542;-68
2022/11/26 08:18:36;;;;;;;19.70;6.17;;;;;;;8.58;100.00;102179.38;5048236;28;21021;-69
2022/11/26 08:21:04;;;;;;;14.47;5.97;;;;;;;8.58;100.00;102184.78;5051699;28;20484;-68
2022/11/26 08:23:32;;;;;;;18.97;5.60;;;;;;;8.60;100.00;102179.97;5051643;28;20464;-70
2022/11/26 08:25:58;;;;;;;19.80;6.10;;;;;;;8.63;100.00;102189.44;5052883;28;20446;-69
2022/11/26 08:28:26;;;;;;;14.20;5.90;;;;;;;8.64;100.00;102194.63;5051467;28;20466;-69
2022/11/26 08:31:01;;;;;;;30.47;5.67;;;;;;;8.61;100.00;102195.09;5051621;28;20549;-69
2022/11/26 08:33:28;;;;;;;9.87;4.90;;;;;;;8.64;100.00;102191.91;5052387;28;20970;-69
2022/11/26 08:35:55;;;;;;;12.83;6.23;;;;;;;8.63;100.00;102190.25;5051835;28;20458;-69
2022/11/26 08:38:22;;;;;;;10.47;5.17;;;;;;;8.63;100.00;102205.66;5053874;28;20466;-69
2022/11/26 08:40:49;;;;;;;16.17;6.37;;;;;;;8.68;100.00;102205.75;5056649;28;20520;-69
2022/11/26 08:43:15;;;;;;;19.00;5.80;;;;;;;8.66;100.00;102213.28;5056594;28;20469;-73
2022/11/26 08:45:43;;;;;;;11.70;4.70;;;;;;;8.71;100.00;102206.06;5056504;28;20470;-70
2022/11/26 08:48:12;;;;;;;13.90;4.73;;;;;;;8.66;100.00;102214.09;5056383;28;20441;-70
2022/11/26 08:50:38;;;;;;;18.23;5.63;;;;;;;8.67;100.00;102220.31;5056541;28;20450;-69
2022/11/26 08:53:05;;;;;;;14.47;4.80;;;;;;;8.72;100.00;102223.06;5056144;28;20482;-69
2022/11/26 08:55:31;;;;;;;31.73;4.80;;;;;;;8.74;100.00;102223.66;5056273;28;20444;-69
2022/11/26 08:57:58;;;;;;;16.17;4.20;;;;;;;8.72;100.00;102233.88;5056028;28;20444;-69
2022/11/26 09:00:25;;;;;;;16.43;5.33;;;;;;;8.70;100.00;102230.63;5056006;28;20469;-69
2022/11/26 09:02:52;;;;;;;9.30;4.37;;;;;;;8.74;100.00;102237.16;5056704;28;20469;-70
2022/11/26 09:05:19;;;;;;;15.80;6.00;;;;;;;8.78;100.00;102241.81;5056321;28;20444;-69
2022/11/26 09:07:46;;;;;;;11.13;4.50;;;;;;;8.80;100.00;102239.69;5056238;28;20512;-69
2022/11/26 09:10:13;;;;;;;18.43;4.70;;;;;;;8.81;100.00;102249.44;5055864;28;20469;-69
2022/11/26 09:12:40;;;;;;;8.90;4.20;;;;;;;8.76;100.00;102243.13;5056643;28;20488;-70
2022/11/26 09:15:07;;;;;;;14.70;4.43;;;;;;;8.79;100.00;102248.84;5056610;28;20882;-69
2022/11/26 09:17:34;;;;;;;11.30;4.03;;;;;;;8.81;100.00;102254.84;5056006;28;20454;-70
2022/11/26 09:20:02;;;;;;;15.43;5.10;;;;;;;8.80;100.00;102258.59;5056136;28;20501;-70
2022/11/26 09:22:29;;;;;;;18.60;4.10;;;;;;;8.81;100.00;102257.56;5055736;28;20962;-69
2022/11/26 09:24:56;;;;;;;22.27;4.93;;;;;;;8.81;100.00;102262.94;5055881;28;20449;-69
2022/11/26 09:27:22;;;;;;;12.57;4.10;;;;;;;8.78;100.00;102263.44;5055848;28;20448;-69
2022/11/26 09:29:49;;;;;;;10.57;4.23;;;;;;;8.81;100.00;102265.66;5055613;28;20504;-69
2022/11/26 09:32:15;;;;;;;11.53;3.40;;;;;;;8.86;100.00;102277.59;5055565;28;20804;-69
2022/11/26 09:34:42;;;;;;;8.50;3.57;;;;;;;8.82;100.00;102277.28;5055628;28;20486;-69
2022/11/26 09:37:10;;;;;;;11.70;4.27;;;;;;;8.83;100.00;102281.63;5055557;28;20446;-69
2022/11/26 09:39:36;;;;;;;10.40;3.67;;;;;;;8.82;100.00;102277.28;5055040;28;20929;-69
2022/11/26 09:42:06;;;;;;;10.30;4.07;;;;;;;8.80;100.00;102282.09;5055466;28;20518;-68
2022/11/26 09:45:00;;;;;;;11.07;4.13;;;;;;;8.83;100.00;102279.72;5055359;28;20537;-69
2022/11/26 09:47:29;;;;;;;17.33;3.37;;;;;;;8.69;100.00;102283.03;5054861;28;20423;-72
2022/11/26 09:50:02;;;;;;;9.60;3.97;;;;;;;8.74;100.00;102286.59;5055275;28;20549;-72
2022/11/26 09:52:38;;;;;;;13.40;3.50;;;;;;;8.73;100.00;102290.38;5055000;28;20472;-71
2022/11/26 09:55:15;;;;;;;20.37;3.23;;;;;;;8.76;100.00;102291.75;5055039;28;20472;-72
2022/11/26 09:57:43;;;;;;;12.50;4.30;;;;;;;8.73;100.00;102301.19;5055238;28;20444;-71
2022/11/26 10:00:22;;;;;;;13.90;4.40;;;;;;;8.72;100.00;102306.81;5052798;28;21268;-72
2022/11/26 10:02:52;;;;;;;9.83;3.43;;;;;;;8.65;100.00;102307.00;5050999;28;20823;-71
2022/11/26 10:05:19;;;;;;;19.10;5.60;;;;;;;8.66;100.00;102305.94;5052728;28;20446;-73
2022/11/26 10:07:59;;;;;;;22.43;6.00;;;;;;;8.66;100.00;102313.22;5054919;28;20943;-72
2022/11/26 10:10:33;;;;;;;9.87;4.13;;;;;;;8.68;100.00;102309.22;5053799;28;20513;-71
2022/11/26 10:13:15;;;;;;;11.40;4.43;;;;;;;8.70;100.00;102306.25;5054889;28;20552;-70
2022/11/26 10:15:49;;;;;;;10.70;3.30;;;;;;;8.73;100.00;102314.69;5053441;28;20963;-71
2022/11/26 10:18:22;;;;;;;10.63;4.10;;;;;;;8.74;100.00;102304.72;5054764;28;20465;-70
2022/11/26 10:20:57;;;;;;;9.37;3.60;;;;;;;8.72;100.00;102298.72;5053333;28;20465;-70
2022/11/26 10:23:32;;;;;;;14.77;3.37;;;;;;;8.59;100.00;102303.41;5054740;28;20422;-77
2022/11/26 10:26:06;;;;;;;19.23;4.23;;;;;;;8.64;100.00;102308.06;5053661;28;20508;-71
2022/11/26 10:28:38;;;;;;;15.37;3.50;;;;;;;8.66;100.00;102302.41;5054579;28;20465;-72
2022/11/26 10:31:09;;;;;;;8.90;3.67;;;;;;;8.69;100.00;102310.84;5053591;28;20458;-70
2022/11/26 10:33:45;;;;;;;20.00;4.13;;;;;;;8.72;100.00;102314.94;5052038;28;20476;-71
2022/11/26 10:36:20;;;;;;;11.30;3.60;;;;;;;8.57;100.00;102316.31;5053412;28;20544;-72
2022/11/26 10:38:48;;;;;;;13.03;3.43;;;;;;;8.59;100.00;102319.59;5054123;28;20508;-71
2022/11/26 10:41:15;;;;;;;8.90;3.20;;;;;;;8.59;100.00;102316.09;5052430;28;20458;-72
2022/11/26 10:43:42;;;;;;;11.20;3.30;;;;;;;8.57;100.00;102321.72;5053331;28;20738;-72
2022/11/26 10:46:29;;;;;;;12.77;3.27;;;;;;;8.57;100.00;102326.31;5054274;28;20449;-71
2022/11/26 10:49:16;;;;;;;8.80;2.87;;;;;;;8.64;100.00;102335.09;5053805;28;20555;-71
2022/11/26 10:51:47;;;;;;;9.70;2.97;;;;;;;8.69;100.00;102334.34;5054617;28;20423;-74
2022/11/26 10:54:24;;;;;;;8.17;2.83;;;;;;;8.62;100.00;102339.06;5053150;28;20562;-71
2022/11/26 10:56:53;;;;;;;15.53;3.67;;;;;;;8.67;100.00;102339.97;5053125;28;20515;-71
2022/11/26 10:59:25;;;;;;;9.37;3.60;;;;;;;8.68;100.00;102340.81;5051998;28;20478;-71
2022/11/26 11:01:53;;;;;;;11.43;3.40;;;;;;;8.66;100.00;102337.53;5053998;28;20473;-71
2022/11/26 11:04:26;;;;;;;9.10;2.93;;;;;;;8.65;100.00;102342.13;5052874;28;20454;-71
2022/11/26 11:06:53;;;;;;;11.13;3.07;;;;;;;8.69;100.00;102335.16;5052903;28;20461;-72
2022/11/26 11:09:30;;;;;;;10.63;3.80;;;;;;;8.71;100.00;102338.41;5052796;28;20484;-71
2022/11/26 11:12:17;;;;;;;10.50;3.13;;;;;;;8.73;100.00;102327.38;5051425;28;20484;-71
2022/11/26 11:14:45;;;;;;;10.63;3.50;;;;;;;8.74;100.00;102334.44;5050016;28;20840;-72
2022/11/26 11:17:30;;;;;;;8.03;2.80;;;;;;;8.77;100.00;102328.53;5051629;28;20512;-71
2022/11/26 11:19:58;;;;;;;9.23;3.73;;;;;;;8.83;100.00;102338.34;5053616;28;20501;-71
2022/11/26 11:22:25;;;;;;;13.73;3.50;;;;;;;8.82;100.00;102331.31;5051632;28;20459;-73
2022/11/26 11:24:54;;;;;;;9.50;3.77;;;;;;;8.87;100.00;102349.50;5051088;28;20482;-72